Time;durP1;ratioP1;P1;durP2;ratioP2;P2;SDS_P1;SDS_P2;PMS_P1;PMS_P2;Temp;Humidity;BMP_temperature;BMP_pressure;BME280_temperature;BME280_humidity;BME280_pressure;Samples;Min_cycle;Max_cycle;Signal;HPM_P1;HPM_P2
2022/07/03 00:00:41;;;;;;;2.45;2.10;;;;;;;19.45;57.48;99266.97;5120386;28;20090;-72
2022/07/03 00:03:31;;;;;;;3.33;2.22;;;;;;;19.65;56.56;99265.31;5121275;29;20074;-73
2022/07/03 00:06:22;;;;;;;4.35;2.10;;;;;;;19.62;56.59;99259.44;5121809;29;20190;-74
2022/07/03 00:09:12;;;;;;;3.08;2.08;;;;;;;19.51;56.29;99252.75;5108839;28;20178;-73
2022/07/03 00:12:04;;;;;;;2.83;2.20;;;;;;;19.57;56.91;99261.88;5119322;29;20091;-72
2022/07/03 00:14:54;;;;;;;3.78;2.33;;;;;;;19.46;57.39;99260.56;5119842;29;20051;-73
2022/07/03 00:17:44;;;;;;;4.57;2.40;;;;;;;19.55;56.92;99264.78;5121802;29;20434;-73
2022/07/03 00:20:40;;;;;;;4.35;1.90;;;;;;;19.48;56.90;99277.34;5121304;28;20137;-75
2022/07/03 00:23:39;;;;;;;3.83;2.30;;;;;;;19.24;57.64;99279.41;5121161;28;20047;-73
2022/07/03 00:26:34;;;;;;;4.07;2.13;;;;;;;19.12;59.79;99286.31;5121782;28;20113;-73
2022/07/03 00:29:26;;;;;;;;;;;;;;;18.86;60.57;99273.44;5119187;28;20082;-74
2022/07/03 00:32:23;;;;;;;5.03;2.50;;;;;;;18.69;61.64;99269.31;5122006;28;20403;-74
2022/07/03 00:35:16;;;;;;;5.82;2.67;;;;;;;18.68;62.20;99278.41;5109299;29;20058;-74
2022/07/03 00:38:07;;;;;;;4.50;2.53;;;;;;;18.71;60.69;99272.66;5122771;29;20063;-74
2022/07/03 00:40:57;;;;;;;3.78;2.65;;;;;;;18.62;61.09;99274.59;5120882;28;20055;-74
2022/07/03 00:43:47;;;;;;;4.05;2.40;;;;;;;18.50;61.07;99276.94;5122163;29;20047;-73
2022/07/03 00:46:39;;;;;;;4.15;2.58;;;;;;;18.46;61.89;99275.66;5122468;29;20182;-74
2022/07/03 00:49:32;;;;;;;4.35;2.38;;;;;;;18.51;61.81;99275.09;5122598;29;20055;-73
2022/07/03 00:52:23;;;;;;;3.50;2.45;;;;;;;18.41;61.68;99286.13;5121621;28;20417;-73
2022/07/03 00:55:17;;;;;;;2.63;2.42;;;;;;;18.31;62.49;99282.91;5122552;29;20561;-73
2022/07/03 00:58:07;;;;;;;6.88;2.33;;;;;;;18.29;61.94;99277.69;5122274;29;20059;-73
2022/07/03 01:00:58;;;;;;;5.53;2.55;;;;;;;18.03;63.12;99278.16;5120136;28;20055;-72
2022/07/03 01:03:53;;;;;;;2.60;2.10;;;;;;;17.95;62.81;99266.72;5122120;29;20054;-73
2022/07/03 01:07:05;;;;;;;2.95;2.40;;;;;;;18.03;62.83;99285.41;5122446;29;20054;-74
2022/07/03 01:10:27;;;;;;;6.50;2.33;;;;;;;18.05;62.70;99286.88;5107106;29;20106;-73
2022/07/03 01:13:42;;;;;;;9.10;2.70;;;;;;;17.92;63.91;99293.91;5120418;28;20047;-73
2022/07/03 01:16:38;;;;;;;4.03;2.30;;;;;;;17.80;62.89;99291.66;5121993;29;20188;-74
2022/07/03 01:19:37;;;;;;;7.70;2.55;;;;;;;17.80;62.68;99296.19;5107405;29;20146;-73
2022/07/03 01:22:45;;;;;;;3.83;2.35;;;;;;;17.73;63.57;99296.06;5121035;29;20051;-73
2022/07/03 01:25:50;;;;;;;3.20;2.25;;;;;;;17.77;64.02;99292.03;5122026;29;20055;-73
2022/07/03 01:28:45;;;;;;;4.78;2.63;;;;;;;17.80;63.78;99267.53;5122094;29;20187;-74
2022/07/03 01:31:39;;;;;;;3.05;2.47;;;;;;;17.69;63.88;99267.94;5121253;29;20054;-74
2022/07/03 01:34:34;;;;;;;5.47;2.53;;;;;;;17.65;63.35;99260.44;5110483;29;20058;-73
2022/07/03 01:37:27;;;;;;;3.25;2.38;;;;;;;17.59;63.67;99272.75;5121533;29;20095;-74
2022/07/03 01:40:18;;;;;;;3.88;2.70;;;;;;;17.45;64.37;99270.84;5106757;29;20133;-73
2022/07/03 01:43:11;;;;;;;3.20;2.60;;;;;;;17.39;64.32;99261.69;5121096;29;20051;-74
2022/07/03 01:46:03;;;;;;;4.83;2.80;;;;;;;17.43;63.95;99262.16;5120473;29;20485;-73
2022/07/03 01:48:55;;;;;;;3.92;2.95;;;;;;;17.29;64.35;99263.81;5121838;28;20051;-73
2022/07/03 01:51:50;;;;;;;5.28;2.33;;;;;;;17.42;64.29;99263.16;5121180;28;20079;-73
2022/07/03 01:54:44;;;;;;;4.50;2.70;;;;;;;17.38;63.97;99260.00;5122129;29;20062;-73
2022/07/03 01:57:41;;;;;;;;;;;;;;;17.34;64.92;99261.41;5120922;28;20149;-73
2022/07/03 02:00:55;;;;;;;2.50;2.30;;;;;;;17.14;63.21;99253.84;5119831;28;19989;-74
2022/07/03 02:04:14;;;;;;;5.00;2.60;;;;;;;17.05;65.65;99265.66;5119868;29;20051;-73
2022/07/03 02:07:34;;;;;;;4.10;2.50;;;;;;;17.17;64.83;99235.75;5121566;29;20061;-72
2022/07/03 02:10:29;;;;;;;8.20;2.50;;;;;;;17.26;64.48;99261.47;5108362;29;20053;-73
2022/07/03 02:13:23;;;;;;;6.00;2.40;;;;;;;17.21;64.61;99262.00;5120436;29;20091;-74
2022/07/03 02:16:21;;;;;;;5.47;2.95;;;;;;;16.96;64.90;99252.50;5121166;29;20152;-73
2022/07/03 02:19:15;;;;;;;7.53;3.08;;;;;;;16.97;64.93;99257.66;5121448;29;20051;-73
2022/07/03 02:22:08;;;;;;;4.30;3.17;;;;;;;17.13;65.40;99265.59;5120098;29;20051;-73
2022/07/03 02:25:07;;;;;;;5.63;2.80;;;;;;;16.97;65.23;99262.19;5121908;28;20721;-74
2022/07/03 02:28:05;;;;;;;7.53;2.95;;;;;;;16.94;65.53;99262.56;5124729;29;20051;-73
2022/07/03 02:31:01;;;;;;;6.40;3.53;;;;;;;16.99;65.21;99249.47;5155109;23;20045;-71
2022/07/03 02:33:57;;;;;;;3.10;2.70;;;;;;;16.93;66.31;99260.91;5163539;28;20061;-69
2022/07/03 02:36:51;;;;;;;5.95;3.58;;;;;;;17.00;65.58;99257.31;5154686;28;20058;-68
2022/07/03 02:39:51;;;;;;;7.45;2.83;;;;;;;16.95;65.10;99248.13;5165173;28;20523;-71
2022/07/03 02:43:10;;;;;;;8.75;3.03;;;;;;;16.87;65.74;99268.63;5144150;28;20073;-69
2022/07/03 02:49:19;;;;;;;4.68;2.45;;;;;;;16.82;64.67;99262.97;5143250;28;20509;-69
2022/07/03 02:52:33;;;;;;;3.33;2.83;;;;;;;16.89;66.10;99265.78;5143313;28;20485;-69
2022/07/03 02:55:40;;;;;;;3.87;2.60;;;;;;;16.93;65.97;99261.72;5144997;28;20062;-69
2022/07/03 02:59:11;;;;;;;4.25;3.03;;;;;;;16.86;66.05;99266.97;5143880;28;20054;-68
2022/07/03 03:02:53;;;;;;;3.35;2.70;;;;;;;16.79;65.56;99278.56;5142766;28;20057;-69
2022/07/03 03:05:48;;;;;;;4.68;3.00;;;;;;;16.75;65.63;99274.53;5122438;28;20107;-69
2022/07/03 03:08:43;;;;;;;7.22;3.13;;;;;;;16.84;65.84;99277.00;5122494;28;20150;-69
2022/07/03 03:11:43;;;;;;;6.18;2.97;;;;;;;16.86;65.34;99287.56;5142053;28;20047;-69
2022/07/03 03:14:44;;;;;;;4.75;2.75;;;;;;;16.80;65.87;99275.69;5130492;28;20421;-69
2022/07/03 03:17:50;;;;;;;4.70;2.80;;;;;;;16.84;65.30;99301.09;5144747;28;20168;-70
2022/07/03 03:20:43;;;;;;;6.60;2.80;;;;;;;16.65;66.17;99288.13;5131553;28;20132;-69
2022/07/03 03:23:53;;;;;;;8.27;2.70;;;;;;;16.44;66.88;99273.50;5142645;28;20061;-69
2022/07/03 03:26:44;;;;;;;3.72;2.75;;;;;;;16.41;66.71;99265.81;5143367;28;20425;-69
2022/07/03 03:29:34;;;;;;;5.15;3.20;;;;;;;16.40;66.80;99292.78;5144290;28;20136;-69
2022/07/03 03:32:26;;;;;;;4.07;2.88;;;;;;;16.30;67.38;99295.66;5142693;28;20109;-69
2022/07/03 03:35:16;;;;;;;4.55;2.85;;;;;;;16.44;67.54;99297.59;5143250;28;20077;-69
2022/07/03 03:38:07;;;;;;;3.80;2.80;;;;;;;16.47;67.02;99298.28;5143337;28;20469;-70
2022/07/03 03:40:57;;;;;;;4.95;3.33;;;;;;;16.51;67.09;99294.22;5143908;28;20476;-70
2022/07/03 03:43:47;;;;;;;4.28;3.05;;;;;;;16.65;66.63;99304.19;5143506;28;20099;-69
2022/07/03 03:46:37;;;;;;;5.75;3.80;;;;;;;16.68;66.57;99302.00;5130179;28;20050;-69
2022/07/03 03:49:28;;;;;;;8.73;4.35;;;;;;;16.61;66.37;99297.53;5144198;28;20071;-70
2022/07/03 03:52:18;;;;;;;5.22;3.10;;;;;;;16.67;66.74;99299.50;5142553;28;20062;-70
2022/07/03 03:55:09;;;;;;;3.63;2.95;;;;;;;16.58;66.77;99305.91;5144559;28;20066;-70
2022/07/03 03:58:01;;;;;;;4.43;3.00;;;;;;;16.39;67.36;99308.00;5143606;28;20246;-70
2022/07/03 04:00:53;;;;;;;3.60;2.90;;;;;;;16.47;66.90;99306.31;5143120;28;20501;-71
2022/07/03 04:03:43;;;;;;;4.63;3.22;;;;;;;16.41;67.61;99310.50;5143146;28;20053;-70
2022/07/03 04:06:33;;;;;;;4.65;3.28;;;;;;;16.47;67.36;99315.16;5143482;28;20611;-70
2022/07/03 04:09:23;;;;;;;4.22;3.05;;;;;;;16.52;66.32;99307.44;5143713;28;20078;-70
2022/07/03 04:12:13;;;;;;;3.85;2.92;;;;;;;16.52;67.72;99307.44;5140630;28;20054;-70
2022/07/03 04:15:04;;;;;;;5.22;3.50;;;;;;;16.57;68.83;99314.94;5143013;28;20110;-70
2022/07/03 04:17:54;;;;;;;4.18;3.30;;;;;;;16.63;67.84;99314.25;5142682;28;20051;-70
2022/07/03 04:20:45;;;;;;;5.45;2.80;;;;;;;16.65;67.83;99307.72;5128647;28;20529;-70
2022/07/03 04:23:35;;;;;;;5.72;3.03;;;;;;;16.83;67.08;99315.50;5142699;28;20532;-70
2022/07/03 04:26:25;;;;;;;6.57;3.35;;;;;;;16.80;68.29;99325.75;5142862;28;20544;-70
2022/07/03 04:29:15;;;;;;;9.40;3.45;;;;;;;16.89;67.39;99327.38;5143481;28;20562;-68
2022/07/03 04:32:05;;;;;;;4.05;2.90;;;;;;;16.70;67.49;99301.84;5142262;28;20440;-68
2022/07/03 04:34:56;;;;;;;3.95;2.80;;;;;;;16.74;66.90;99308.50;5143313;28;20136;-69
2022/07/03 04:37:46;;;;;;;6.15;3.00;;;;;;;16.78;67.46;99328.59;5143895;28;20073;-69
2022/07/03 04:40:36;;;;;;;5.45;3.08;;;;;;;16.73;67.96;99316.72;5142274;28;20074;-71
2022/07/03 04:43:26;;;;;;;6.30;3.20;;;;;;;16.91;67.40;99344.91;5131942;28;20196;-68
2022/07/03 04:46:16;;;;;;;6.93;3.35;;;;;;;16.91;68.27;99336.88;5142957;28;20144;-68
2022/07/03 04:49:07;;;;;;;3.60;2.78;;;;;;;17.05;67.48;99345.16;5142129;28;20051;-69
2022/07/03 04:51:57;;;;;;;4.53;2.97;;;;;;;17.05;67.17;99335.31;5140934;28;20137;-68
2022/07/03 04:54:48;;;;;;;3.80;3.40;;;;;;;17.18;67.59;99349.94;5141585;28;20054;-68
2022/07/03 04:57:38;;;;;;;13.52;3.42;;;;;;;17.13;69.28;99353.19;5142456;28;20135;-70
2022/07/03 05:00:28;;;;;;;7.70;3.33;;;;;;;17.19;67.78;99344.44;5140910;28;20065;-70
2022/07/03 05:03:18;;;;;;;4.25;3.03;;;;;;;17.25;67.01;99340.19;5140064;28;20050;-70
2022/07/03 05:06:08;;;;;;;4.20;3.20;;;;;;;17.15;67.44;99308.25;5142551;28;20061;-69
2022/07/03 05:08:58;;;;;;;5.68;3.33;;;;;;;17.40;67.04;99334.91;5142644;28;21311;-70
2022/07/03 05:11:49;;;;;;;4.85;3.03;;;;;;;17.46;67.18;99344.91;5141086;28;20148;-70
2022/07/03 05:14:39;;;;;;;4.07;2.92;;;;;;;17.55;67.70;99346.53;5141758;28;20182;-70
2022/07/03 05:17:29;;;;;;;4.03;2.95;;;;;;;17.72;67.53;99348.03;5142004;28;20101;-70
2022/07/03 05:20:29;;;;;;;5.13;2.90;;;;;;;17.75;67.30;99347.69;5141043;28;20082;-70
2022/07/03 05:23:19;;;;;;;5.78;3.60;;;;;;;17.89;68.28;99343.38;5127360;28;20043;-70
2022/07/03 05:26:09;;;;;;;8.23;3.30;;;;;;;18.18;66.94;99352.47;5127726;28;20066;-70
2022/07/03 05:28:59;;;;;;;6.25;3.08;;;;;;;18.37;66.22;99343.88;5142248;28;20058;-70
2022/07/03 05:31:50;;;;;;;3.45;3.13;;;;;;;18.72;65.43;99345.00;5140679;28;20133;-70
2022/07/03 05:34:40;;;;;;;4.43;2.50;;;;;;;19.05;64.54;99336.50;5141208;28;20493;-70
2022/07/03 05:37:30;;;;;;;4.88;3.17;;;;;;;18.98;65.16;99317.63;5140573;28;20051;-70
2022/07/03 05:40:20;;;;;;;3.35;2.90;;;;;;;19.36;64.09;99329.97;5141206;28;20061;-70
2022/07/03 05:43:10;;;;;;;4.57;3.40;;;;;;;19.63;63.09;99339.13;5140023;28;20140;-70
2022/07/03 05:46:00;;;;;;;4.78;2.90;;;;;;;19.99;62.20;99336.31;5141304;28;20149;-70
2022/07/03 05:48:51;;;;;;;4.93;3.10;;;;;;;20.22;61.60;99344.16;5141858;28;20532;-70
2022/07/03 05:51:41;;;;;;;6.80;3.00;;;;;;;20.41;61.32;99351.50;5140313;28;20054;-70
2022/07/03 05:54:31;;;;;;;4.72;2.90;;;;;;;20.67;60.17;99346.50;5141133;28;20152;-70
2022/07/03 05:57:22;;;;;;;3.00;2.40;;;;;;;20.72;60.53;99344.03;5125688;28;20444;-70
2022/07/03 06:00:12;;;;;;;4.15;2.70;;;;;;;20.91;60.83;99340.56;5141230;28;20422;-70
2022/07/03 06:03:03;;;;;;;6.65;3.70;;;;;;;20.71;61.03;99331.59;5139010;28;20051;-70
2022/07/03 06:05:53;;;;;;;4.55;2.70;;;;;;;20.88;60.66;99341.81;5141465;28;20046;-70
2022/07/03 06:08:44;;;;;;;5.57;2.67;;;;;;;20.97;60.91;99339.78;5141616;28;20589;-71
2022/07/03 06:11:34;;;;;;;2.33;2.13;;;;;;;21.04;60.71;99345.19;5124827;28;20149;-71
2022/07/03 06:14:24;;;;;;;4.70;2.85;;;;;;;21.17;60.32;99341.69;5140631;28;20076;-71
2022/07/03 06:17:15;;;;;;;5.57;2.50;;;;;;;21.44;58.78;99335.34;5141316;28;20069;-71
2022/07/03 06:20:06;;;;;;;2.78;2.42;;;;;;;21.73;58.51;99339.50;5141569;28;20058;-71
2022/07/03 06:22:57;;;;;;;4.68;2.47;;;;;;;21.54;59.00;99340.31;5126019;28;20054;-71
2022/07/03 06:25:47;;;;;;;2.90;2.17;;;;;;;21.72;58.76;99337.84;5140093;28;20058;-71
2022/07/03 06:28:37;;;;;;;3.70;2.28;;;;;;;21.74;59.16;99324.16;5141941;28;20692;-70
2022/07/03 06:31:28;;;;;;;5.15;2.33;;;;;;;21.83;59.36;99324.78;5139979;28;20178;-71
2022/07/03 06:34:18;;;;;;;2.58;2.38;;;;;;;22.26;58.45;99330.56;5141597;28;20043;-70
2022/07/03 06:37:08;;;;;;;3.85;2.13;;;;;;;22.25;58.00;99331.56;5139860;28;20054;-70
2022/07/03 06:39:58;;;;;;;4.05;2.10;;;;;;;22.57;57.13;99329.00;5141275;28;20055;-70
2022/07/03 06:42:48;;;;;;;4.32;2.20;;;;;;;22.57;56.88;99313.63;5140477;28;20053;-70
2022/07/03 06:45:38;;;;;;;4.55;2.20;;;;;;;22.51;58.44;99320.69;5126762;28;20061;-71
2022/07/03 06:48:29;;;;;;;2.97;2.20;;;;;;;22.90;56.73;99332.41;5141728;28;20057;-70
2022/07/03 06:51:19;;;;;;;3.38;2.17;;;;;;;23.21;55.52;99333.50;5139182;28;20054;-70
2022/07/03 06:54:09;;;;;;;5.05;1.98;;;;;;;23.59;54.68;99338.03;5141084;28;20139;-71
2022/07/03 06:56:59;;;;;;;4.30;1.95;;;;;;;24.17;53.53;99334.22;5140569;28;20440;-70
2022/07/03 06:59:50;;;;;;;2.70;2.10;;;;;;;25.43;49.77;99328.09;5140663;28;20098;-71
2022/07/03 07:02:40;;;;;;;2.70;1.88;;;;;;;26.41;48.94;99333.97;5138951;28;20507;-71
2022/07/03 07:05:31;;;;;;;6.03;1.98;;;;;;;27.24;45.57;99329.13;5140841;28;20058;-70
2022/07/03 07:08:21;;;;;;;5.15;2.13;;;;;;;27.75;44.85;99335.44;5140855;28;20124;-71
2022/07/03 07:11:12;;;;;;;4.90;2.22;;;;;;;28.64;42.54;99340.06;5140214;28;20070;-72
2022/07/03 07:14:02;;;;;;;2.70;1.63;;;;;;;29.17;41.76;99341.25;5142521;28;20061;-72
2022/07/03 07:16:52;;;;;;;2.17;1.52;;;;;;;29.26;41.61;99337.00;5143117;28;20552;-71
2022/07/03 07:19:42;;;;;;;2.53;1.80;;;;;;;29.69;40.71;99348.88;5144552;28;20064;-69
2022/07/03 07:22:33;;;;;;;8.13;1.60;;;;;;;30.15;40.33;99346.50;5141998;28;20118;-72
2022/07/03 07:25:22;;;;;;;2.45;1.35;;;;;;;30.86;39.28;99333.25;5144211;28;20059;-72
2022/07/03 07:28:13;;;;;;;4.43;1.52;;;;;;;31.00;39.60;99346.44;5129462;28;20050;-71
2022/07/03 07:31:03;;;;;;;2.13;1.80;;;;;;;31.15;39.27;99340.97;5143296;28;20039;-71
2022/07/03 07:33:53;;;;;;;2.72;1.50;;;;;;;31.59;39.28;99335.88;5143418;28;20117;-70
2022/07/03 07:36:43;;;;;;;2.70;1.95;;;;;;;32.32;36.90;99334.72;5143768;28;20524;-70
2022/07/03 07:39:33;;;;;;;2.80;1.50;;;;;;;32.56;35.96;99340.44;5144186;28;20530;-70
2022/07/03 07:42:24;;;;;;;2.95;1.50;;;;;;;32.69;34.89;99334.34;5129608;28;20133;-70
2022/07/03 07:45:14;;;;;;;1.05;1.00;;;;;;;32.72;33.92;99339.28;5144015;28;20050;-70
2022/07/03 07:48:05;;;;;;;1.70;1.10;;;;;;;33.15;33.38;99342.38;5142917;28;20532;-70
2022/07/03 07:50:55;;;;;;;2.42;1.08;;;;;;;33.26;33.06;99345.06;5143135;28;20065;-70
2022/07/03 07:53:45;;;;;;;2.22;1.20;;;;;;;32.41;35.73;99343.19;5142338;28;20061;-70
2022/07/03 07:56:36;;;;;;;1.63;1.50;;;;;;;31.95;36.19;99332.31;5144045;28;20057;-70
2022/07/03 07:59:26;;;;;;;3.10;1.25;;;;;;;31.92;35.70;99332.84;5143091;28;20054;-70
2022/07/03 08:05:38;;;;;;;2.17;1.00;;;;;;;32.64;34.13;99326.13;5143761;28;20051;-70
2022/07/03 08:08:28;;;;;;;5.40;1.20;;;;;;;33.25;33.70;99341.50;5130393;28;20139;-70
2022/07/03 08:11:17;;;;;;;1.38;1.17;;;;;;;33.64;34.36;99329.66;5141767;28;20197;-70
2022/07/03 08:14:08;;;;;;;1.15;0.93;;;;;;;33.12;33.59;99331.94;5142547;28;20173;-70
2022/07/03 08:16:58;;;;;;;2.97;1.20;;;;;;;30.94;36.43;99323.69;5143307;28;20521;-70
2022/07/03 08:19:49;;;;;;;1.38;1.00;;;;;;;31.76;34.80;99315.59;5142960;28;20482;-70
2022/07/03 08:22:39;;;;;;;3.28;1.10;;;;;;;33.27;32.08;99319.22;5142116;28;20561;-70
2022/07/03 08:25:30;;;;;;;1.45;1.13;;;;;;;32.02;36.08;99311.75;5143114;28;20425;-70
2022/07/03 08:28:20;;;;;;;2.35;0.93;;;;;;;33.36;33.83;99318.31;5128639;28;20043;-70
2022/07/03 08:31:11;;;;;;;2.63;1.20;;;;;;;32.86;34.14;99317.50;5142615;28;20616;-70
2022/07/03 08:34:01;;;;;;;3.45;1.10;;;;;;;32.54;34.76;99306.13;5143284;28;20771;-69
2022/07/03 08:36:51;;;;;;;2.95;0.93;;;;;;;33.58;34.61;99314.34;5143267;28;20077;-69
2022/07/03 08:39:41;;;;;;;2.10;1.25;;;;;;;33.38;33.67;99315.31;5143345;28;20069;-69
2022/07/03 08:42:32;;;;;;;1.52;1.00;;;;;;;33.02;36.33;99318.28;5141854;28;20062;-69
2022/07/03 08:45:24;;;;;;;3.60;1.17;;;;;;;33.11;32.34;99313.81;5135662;28;20485;-70
2022/07/03 08:48:18;;;;;;;2.55;0.90;;;;;;;33.54;31.42;99314.06;5142844;28;20049;-70
2022/07/03 08:51:10;;;;;;;1.60;1.20;;;;;;;33.83;31.43;99308.59;5141382;28;20084;-70
2022/07/03 08:54:01;;;;;;;1.05;1.00;;;;;;;34.08;30.04;99298.50;5142755;28;20049;-69
2022/07/03 08:56:52;;;;;;;1.45;1.20;;;;;;;33.91;30.70;99313.50;5142724;28;20421;-69
2022/07/03 08:59:49;;;;;;;1.23;1.10;;;;;;;34.48;29.62;99301.91;5142375;28;20448;-72
2022/07/03 09:02:44;;;;;;;2.55;1.08;;;;;;;34.16;32.66;99302.53;5133388;28;20204;-69
2022/07/03 09:05:35;;;;;;;2.83;1.17;;;;;;;33.68;33.49;99295.00;5142282;28;20055;-72
2022/07/03 09:08:28;;;;;;;2.10;0.98;;;;;;;34.18;31.76;99305.84;5127346;28;20527;-68
2022/07/03 09:11:19;;;;;;;0.80;0.80;;;;;;;34.68;33.47;99303.59;5142298;28;20058;-70
2022/07/03 09:14:08;;;;;;;0.95;0.90;;;;;;;34.04;30.66;99298.28;5141222;28;20073;-70
2022/07/03 09:16:58;;;;;;;5.55;0.90;;;;;;;32.18;31.84;99292.50;5142048;28;20063;-70
2022/07/03 09:19:49;;;;;;;1.38;0.90;;;;;;;32.10;33.83;99291.16;5141846;28;20088;-70
2022/07/03 09:22:39;;;;;;;2.25;0.95;;;;;;;33.63;31.95;99301.34;5141426;28;20077;-70
2022/07/03 09:25:29;;;;;;;2.00;0.80;;;;;;;34.17;32.15;99295.91;5141804;28;20058;-70
2022/07/03 09:28:22;;;;;;;0.98;0.88;;;;;;;34.36;29.17;99302.31;5142374;28;20420;-70
2022/07/03 09:31:14;;;;;;;1.90;0.77;;;;;;;35.09;29.43;99292.03;5140816;28;20433;-70
2022/07/03 09:34:07;;;;;;;2.55;0.70;;;;;;;33.91;30.61;99296.16;5141245;28;20050;-70
2022/07/03 09:36:57;;;;;;;3.22;0.68;;;;;;;33.70;33.50;99290.03;5140743;28;20132;-70
2022/07/03 09:39:56;;;;;;;0.90;0.90;;;;;;;34.18;29.30;99289.31;5141323;28;20535;-70
2022/07/03 09:43:01;;;;;;;0.73;0.70;;;;;;;34.00;31.73;99294.41;5129106;28;20054;-70
2022/07/03 09:45:56;;;;;;;2.05;0.90;;;;;;;34.86;29.24;99289.00;5141648;28;20061;-70
2022/07/03 09:48:46;;;;;;;1.25;0.65;;;;;;;34.81;28.89;99284.41;5141668;28;20057;-70
2022/07/03 09:51:36;;;;;;;1.15;0.70;;;;;;;34.25;29.12;99276.03;5140623;28;20523;-71
2022/07/03 09:54:27;;;;;;;2.78;1.05;;;;;;;33.58;30.09;99284.94;5137452;28;20070;-71
2022/07/03 09:57:18;;;;;;;1.70;0.73;;;;;;;34.48;30.33;99280.69;5142517;28;20070;-70
2022/07/03 10:00:21;;;;;;;1.88;0.80;;;;;;;33.95;29.53;99286.22;5142435;28;20066;-71
2022/07/03 10:03:12;;;;;;;2.20;0.90;;;;;;;32.84;30.64;99272.19;5142113;28;20086;-70
2022/07/03 10:06:03;;;;;;;1.17;1.08;;;;;;;33.85;31.07;99276.13;5142200;28;20057;-70
2022/07/03 10:08:53;;;;;;;0.75;0.63;;;;;;;34.81;30.44;99269.81;5141885;28;20146;-70
2022/07/03 10:11:44;;;;;;;1.02;0.80;;;;;;;34.18;28.54;99279.13;5140234;28;20062;-70
2022/07/03 10:14:34;;;;;;;0.75;0.73;;;;;;;34.95;28.63;99273.47;5141116;28;20047;-70
2022/07/03 10:17:24;;;;;;;4.82;0.63;;;;;;;34.40;30.05;99266.75;5141051;28;20255;-70
2022/07/03 10:20:24;;;;;;;5.35;1.02;;;;;;;34.28;29.41;99258.94;5141323;28;20162;-70
2022/07/03 10:23:15;;;;;;;0.50;0.50;;;;;;;33.65;29.28;99266.16;5140506;28;20150;-70
2022/07/03 10:26:08;;;;;;;1.02;0.77;;;;;;;33.69;31.27;99266.41;5140222;28;20599;-69
2022/07/03 10:29:00;;;;;;;2.67;0.80;;;;;;;32.93;29.91;99259.53;5139388;28;20057;-70
2022/07/03 10:31:50;;;;;;;3.33;0.60;;;;;;;34.08;30.16;99251.72;5139042;28;20189;-71
2022/07/03 10:34:41;;;;;;;2.58;0.52;;;;;;;33.84;29.39;99266.25;5141861;28;20547;-70
2022/07/03 10:38:00;;;;;;;2.17;0.63;;;;;;;34.37;30.42;99254.38;5141278;28;20560;-71
2022/07/03 10:47:38;;;;;;;1.00;0.68;;;;;;;34.62;29.63;99263.47;5144347;28;20057;-70
2022/07/03 10:50:29;;;;;;;1.70;0.90;;;;;;;34.19;27.64;99264.25;5144694;28;20082;-69
2022/07/03 10:53:24;;;;;;;0.80;0.57;;;;;;;33.67;29.64;99266.66;5143002;28;20058;-70
2022/07/03 10:56:17;;;;;;;;;;;;;;;33.40;28.64;99269.09;5144437;28;20509;-70
2022/07/03 10:59:07;;;;;;;3.60;0.75;;;;;;;33.02;31.09;99263.34;5144557;28;19945;-70
2022/07/03 11:02:35;;;;;;;1.13;0.60;;;;;;;33.93;31.21;99252.66;5143529;28;20073;-70
2022/07/03 11:05:35;;;;;;;5.20;0.85;;;;;;;33.85;29.69;99256.88;5143051;28;20055;-70
2022/07/03 11:08:26;;;;;;;1.40;0.52;;;;;;;32.31;28.37;99247.19;5145111;28;20181;-70
2022/07/03 11:14:43;;;;;;;0.60;0.60;;;;;;;33.47;29.20;99247.59;5144016;28;20553;-70
2022/07/03 11:17:34;;;;;;;2.70;0.88;;;;;;;34.04;27.21;99237.75;5143710;28;20522;-70
2022/07/03 11:20:25;;;;;;;1.45;0.68;;;;;;;33.96;28.50;99234.78;5129673;28;20050;-70
2022/07/03 11:23:48;;;;;;;0.63;0.50;;;;;;;34.07;29.49;99236.31;5143889;28;20069;-70
2022/07/03 11:26:40;;;;;;;1.02;0.52;;;;;;;34.12;28.81;99230.75;5143530;28;20085;-70
2022/07/03 11:29:30;;;;;;;1.90;0.70;;;;;;;34.45;33.82;99225.41;5144288;28;20130;-70
2022/07/03 11:32:46;;;;;;;1.05;0.60;;;;;;;34.08;31.34;99219.53;5142743;28;20457;-70
2022/07/03 11:35:51;;;;;;;0.65;0.65;;;;;;;33.60;32.19;99227.69;5144182;28;20054;-70
2022/07/03 11:38:51;;;;;;;0.70;0.70;;;;;;;33.03;30.68;99214.72;5144868;28;20479;-70
2022/07/03 11:41:42;;;;;;;2.15;0.75;;;;;;;33.32;31.48;99223.81;5142678;28;20059;-70
2022/07/03 11:44:32;;;;;;;1.55;0.70;;;;;;;33.31;29.93;99215.84;5143853;28;20053;-70
2022/07/03 11:47:23;;;;;;;3.92;0.60;;;;;;;33.85;29.70;99206.56;5142815;28;20062;-70
2022/07/03 11:50:13;;;;;;;1.02;0.55;;;;;;;33.24;30.30;99209.88;5130577;28;20543;-69
2022/07/03 11:53:28;;;;;;;0.73;0.60;;;;;;;33.47;31.63;99211.03;5143080;28;20050;-70
2022/07/03 11:56:18;;;;;;;1.42;0.70;;;;;;;33.60;32.81;99194.72;5130634;28;20065;-70
2022/07/03 11:59:08;;;;;;;1.65;0.63;;;;;;;33.42;31.09;99211.91;5142985;28;20050;-70
2022/07/03 12:02:03;;;;;;;0.60;0.60;;;;;;;33.10;31.71;99213.28;5127371;28;20090;-70
2022/07/03 12:04:53;;;;;;;0.50;0.50;;;;;;;33.26;29.42;99207.66;5144048;28;20054;-70
2022/07/03 12:07:44;;;;;;;2.05;0.70;;;;;;;32.62;32.84;99206.72;5143226;28;20061;-70
2022/07/03 12:10:39;;;;;;;0.80;0.70;;;;;;;32.71;30.08;99208.56;5143143;28;20054;-70
2022/07/03 12:13:30;;;;;;;2.10;0.70;;;;;;;32.95;33.15;99207.88;5141924;28;20126;-70
2022/07/03 12:16:32;;;;;;;0.60;0.60;;;;;;;32.42;29.90;99200.25;5130758;28;20050;-70
2022/07/03 12:19:23;;;;;;;2.10;0.50;;;;;;;32.56;30.90;99197.69;5136629;28;20059;-70
2022/07/03 12:22:26;;;;;;;1.85;0.70;;;;;;;31.88;29.43;99190.00;5129016;28;20421;-70
2022/07/03 12:25:16;;;;;;;3.13;0.70;;;;;;;31.80;32.43;99191.38;5142726;28;20069;-70
2022/07/03 12:28:09;;;;;;;0.57;0.57;;;;;;;32.10;30.80;99189.66;5128944;28;20563;-70
2022/07/03 12:31:00;;;;;;;0.75;0.70;;;;;;;32.06;32.05;99183.09;5142553;28;20098;-70
2022/07/03 12:33:51;;;;;;;0.77;0.60;;;;;;;31.59;31.57;99187.88;5141827;28;20136;-70
2022/07/03 12:36:56;;;;;;;1.10;0.70;;;;;;;31.70;31.40;99174.13;5142020;28;20141;-70
2022/07/03 12:39:48;;;;;;;2.97;0.68;;;;;;;31.55;33.18;99181.28;5141888;28;20209;-70
2022/07/03 12:42:49;;;;;;;1.00;0.70;;;;;;;31.30;32.05;99170.34;5142212;28;20406;-70
2022/07/03 12:45:40;;;;;;;5.25;1.10;;;;;;;31.34;32.91;99169.53;5142836;28;20105;-70
2022/07/03 12:48:30;;;;;;;1.50;0.70;;;;;;;31.25;33.04;99171.16;5142761;28;20073;-70
2022/07/03 12:51:42;;;;;;;5.07;0.70;;;;;;;30.98;32.25;99178.81;5141954;28;20054;-70
2022/07/03 12:54:34;;;;;;;1.63;0.90;;;;;;;31.24;32.60;99166.78;5130738;28;20409;-70
2022/07/03 13:00:43;;;;;;;0.82;0.57;;;;;;;31.38;32.46;99161.56;5132109;28;20066;-70
2022/07/03 13:03:35;;;;;;;1.00;0.77;;;;;;;31.15;33.25;99160.19;5143050;28;20118;-69
2022/07/03 13:06:32;;;;;;;1.10;0.80;;;;;;;30.65;33.50;99137.16;5143786;28;20049;-70
2022/07/03 13:09:24;;;;;;;1.83;0.70;;;;;;;30.50;33.01;99153.53;5142662;28;20063;-70
2022/07/03 13:12:22;;;;;;;3.03;0.80;;;;;;;30.72;33.01;99145.91;5131114;28;20054;-70
2022/07/03 13:15:15;;;;;;;1.13;0.63;;;;;;;31.34;31.41;99152.28;5142709;28;20109;-70
2022/07/03 13:18:06;;;;;;;0.70;0.70;;;;;;;31.19;33.05;99155.81;5129614;28;20057;-69
2022/07/03 13:20:56;;;;;;;1.17;0.65;;;;;;;31.31;32.87;99142.66;5127798;28;20188;-70
2022/07/03 13:23:47;;;;;;;2.65;0.90;;;;;;;31.39;33.18;99154.19;5141955;28;20062;-70
2022/07/03 13:26:37;;;;;;;1.92;0.80;;;;;;;30.91;32.18;99148.97;5142541;28;20421;-70
2022/07/03 13:29:27;;;;;;;2.97;0.70;;;;;;;31.45;34.36;99147.59;5143015;28;20093;-70
2022/07/03 13:32:18;;;;;;;1.35;0.90;;;;;;;31.40;31.29;99142.97;5128660;28;20065;-70
2022/07/03 13:35:09;;;;;;;4.00;0.80;;;;;;;31.30;33.15;99141.03;5142508;28;20058;-70
2022/07/03 13:37:59;;;;;;;1.25;0.63;;;;;;;31.35;32.82;99121.03;5141752;28;20054;-69
2022/07/03 13:40:50;;;;;;;0.90;0.60;;;;;;;31.40;33.65;99131.19;5126987;28;20054;-70
2022/07/03 13:43:40;;;;;;;1.80;0.90;;;;;;;31.54;32.86;99140.44;5139989;28;20059;-70
2022/07/03 13:46:31;;;;;;;1.00;0.65;;;;;;;31.35;33.74;99138.28;5127279;28;20058;-70
2022/07/03 13:49:21;;;;;;;0.88;0.88;;;;;;;31.31;31.27;99139.91;5141906;28;20065;-70
2022/07/03 13:52:12;;;;;;;2.15;0.85;;;;;;;30.97;34.23;99136.13;5125775;28;20125;-70
2022/07/03 13:55:07;;;;;;;0.90;0.70;;;;;;;30.99;33.63;99123.78;5140704;28;20169;-70
2022/07/03 13:57:57;;;;;;;0.85;0.70;;;;;;;31.10;32.04;99135.56;5140295;28;20815;-70